Beecher, Wisconsin
Current Conditions -  °F | °C
As of 1:54 AM on Sunday 26 Oct 2014 (Local Time) from KIMT Reporting Station
Clear Clear  
Wind Chill: 40°   Ceiling: Unl
Heat Index: 44°   Visibility: 10mi
Dew Point: 27°   Wind: 8mph
Humidity: 51%   Direction: 300°WNW
Pressure: 29.89"   Gusts: NA
Location:  45.6077°N, 87.9331°W
Report Text: KIMT 260654Z AUTO 30007KT 10SM CLR 07/M03 A2989 RMK AO2 SLP126 T00671028
Loading
Personal Weather Stations






























Interactive Weather Map
Tropical Storm Tracking
New forecast layout! Learn more

10-Day Weather Forecast

Advertisements
Track Severe Weather on mobile